Nearby METAR Reports

 

KBUF - Buffalo/Cheektow, New York, USA
Distance from station: 0 0mi, 0km
Updated: 01/23/2021 8:54am
Mostly cloudy
Mostly cloudy
 Wind from W
Wind: W 13 mph , 20 km/h
Temperature: 19°F , -7°C
Wind Chill: 6°F , -14°C
Dew Point: 10°F , -12°C
Humidity: 68%
Barometer: 30.21 inHg , 1023 hPa
Clouds: Mostly cloudy
Visibility: 10 miles , 16 km
Cloud details: Mostly cloudy 2700 ft
Mostly cloudy 4400 ft
Mostly cloudy 20000 ft
2021/01/23 13:54 KBUF 231354Z 28011KT 10SM BKN027 BKN044 BKN200 M07/M12 A3021 RMK AO2 SLP242 T10721122 $
KIAG - Niagara Falls, New York, USA
Distance from station: NW 16mi, 26km
Updated: 01/23/2021 8:53am
Overcast
Overcast
 Wind from WNW
Wind: WNW 16 mph , 26 km/h
Temperature: 19°F , -7°C
Wind Chill: 4°F , -16°C
Dew Point: 10°F , -12°C
Humidity: 68%
Barometer: 30.22 inHg , 1023.4 hPa
Clouds: Overcast
Visibility: 10 miles , 16 km
Cloud details: Mostly cloudy 3000 ft
Overcast 3600 ft
2021/01/23 13:53 KIAG 231353Z 29014KT 10SM BKN030 OVC036 M07/M12 A3022 RMK AO2 SLP254 T10721117
 
CWPC - Port Colborne(Au, Ontario, Canada
Distance from station: W 27mi, 43km
Updated: 01/23/2021 9:00am

 Wind from NW
Wind: NW 16 mph , 26 km/h, Gust: 22 mph , 35 km/h
Temperature: 18°F , -8°C
Wind Chill: 3°F , -16°C
Dew Point: 9°F , -13°C
Humidity: 68%
2021/01/23 14:00 CWPC 231400Z AUTO 32014G19KT M08/M13 RMK AO1 PK WND 33019/1353 SLP252 T10751127 51027
CYSN - St. Catharines A, Ontario, Canada
Distance from station: NW 29mi, 46km
Updated: 01/23/2021 9:00am
Mostly cloudy
Mostly cloudy
 Wind from WNW
Wind: WNW 14 mph , 22 km/h, Gust: 24 mph , 39 km/h
Temperature: 19°F , -7°C
Wind Chill: 5°F , -15°C
Dew Point: 10°F , -12°C
Humidity: 68%
Barometer: 30.24 inHg , 1024 hPa
Clouds: Mostly cloudy
Visibility: 15 miles , 24 km
Cloud details: Mostly cloudy 2500 ft
Mostly cloudy 9000 ft
2021/01/23 14:00 CYSN 231400Z 30012G21KT 15SM BKN025 BKN090 M07/M12 A3024 RMK SC5AC1 SLP247
 
CWWZ - Port Weller (mar, Ontario, Canada
Distance from station: NW 33mi, 53km
Updated: 01/23/2021 9:00am

 Wind from WNW
Wind: WNW 21 mph , 33 km/h, Gust: 29 mph , 46 km/h
Temperature: 21°F , -6°C
Wind Chill: 5°F , -15°C
Dew Point: 16°F , -9°C
Humidity: 80%
2021/01/23 14:00 CWWZ 231400Z AUTO 30018G25KT M06/M09 RMK AO1 PK WND 29025/1310 SLP251 T10551092 51031
CXVN - Vineland (au8), Ontario, Canada
Distance from station: WNW 38mi, 61km
Updated: 01/23/2021 9:00am

 Wind from WNW
Wind: WNW 14 mph , 22 km/h, Gust: 21 mph , 33 km/h
Temperature: 19°F , -7°C
Wind Chill: 5°F , -15°C
Dew Point: 10°F , -12°C
Humidity: 68%
2021/01/23 14:00 CXVN 231400Z AUTO 30012G18KT M07/M12 RMK AO1 PK WND 30018/1358 SLP251 T10671121 52031
 
KDKK - Dunkirk, New York, USA
Distance from station: SW 41mi, 66km
Updated: 01/23/2021 8:53am
Light snow, Overcast
Light snow, Overcast
 Wind from WNW
Wind: WNW 18 mph , 30 km/h, Gust: 28 mph , 44 km/h
Temperature: 23°F , -5°C
Wind Chill: 9°F , -13°C
Dew Point: 12°F , -11°C
Humidity: 63%
Barometer: 30.24 inHg , 1024 hPa
Summary: Light Snow
Clouds: Overcast
Visibility: 5 miles , 8 km
Cloud details: Few Clouds 2600 ft
Overcast 3500 ft
2021/01/23 13:53 KDKK 231353Z AUTO 30016G24KT 5SM -SN FEW026 OVC035 M05/M11 A3024 RMK AO2 SNE14B44 SLP250 P0000 T10501106
KOLE - Olean, New York, USA
Distance from station: SSE 52mi, 83km
Updated: 01/23/2021 8:55am
Light snow, Overcast
Light snow, Overcast
 Wind from WNW
Wind: WNW 8 mph , 13 km/h, Gust: 20 mph , 31 km/h
Temperature: 14°F , -10°C
Wind Chill: 3°F , -16°C
Dew Point: 10°F , -12°C
Humidity: 85%
Barometer: 30.08 inHg , 1018.6 hPa
Summary: Light Snow
Clouds: Overcast
Visibility: 3 miles , 5 km
Cloud details: Mostly cloudy 1600 ft
Mostly cloudy 2300 ft
Overcast 3600 ft
2021/01/23 13:55 KOLE 231355Z AUTO 29007G17KT 3SM -SN BKN016 BKN023 OVC036 M10/M12 A3008 RMK AO2
 
KROC - Rochester, New York, USA
Distance from station: ENE 55mi, 88km
Updated: 01/23/2021 9:10am
Light snow, Overcast
Light snow, Overcast
 Wind from NW
Wind: NW 9 mph , 15 km/h
Temperature: 18°F , -8°C
Wind Chill: 7°F , -14°C
Dew Point: 16°F , -9°C
Humidity: 93%
Barometer: 30.19 inHg , 1022.4 hPa
Summary: Light Snow
Clouds: Overcast
Visibility: 3/4 mile , 1.2 km
Cloud details: Overcast 1400 ft
2021/01/23 14:10 KROC 231410Z 31008KT 3/4SM R04/4500V6000FT -SN VV014 M08/M09 A3019 RMK AO2 P0000 T10781094
KDSV - Dansville, New York, USA
Distance from station: ESE 57mi, 92km
Updated: 01/23/2021 9:05am
Overcast
Overcast
 Wind from NW
Wind: NW 14 mph , 22 km/h, Gust: 22 mph , 35 km/h
Temperature: 19°F , -7°C
Wind Chill: 5°F , -15°C
Dew Point: 10°F , -12°C
Humidity: 68%
Barometer: 30.17 inHg , 1021.7 hPa
Clouds: Overcast
Visibility: 10 miles , 16 km
Cloud details: Few Clouds 2300 ft
Mostly cloudy 4200 ft
Overcast 4900 ft
2021/01/23 14:05 KDSV 231405Z AUTO 31012G19KT 10SM FEW023 BKN042 OVC049 M07/M12 A3017 RMK AO2 SNE1356 P0000 T10671117
 
CWWB - Burlington Piers, Ontario, Canada
Distance from station: WNW 59mi, 94km
Updated: 01/23/2021 9:00am

 Wind from W
Wind: W 9 mph , 15 km/h
Temperature: 18°F , -8°C
Wind Chill: 7°F , -14°C
Dew Point: 7°F , -14°C
Humidity: 62%
2021/01/23 14:00 CWWB 231400Z AUTO 28008KT M08/M14 RMK AO1 SLP253 T10791137 51026
CYTZ - Toronto Il Vor, Ontario, Canada
Distance from station: NW 59mi, 95km
Updated: 01/23/2021 9:00am
Clear
Clear
 Wind from WNW
Wind: WNW 10 mph , 17 km/h
Temperature: 14°F , -10°C
Wind Chill: 1°F , -17°C
Dew Point: 7°F , -14°C
Humidity: 73%
Barometer: 30.24 inHg , 1024 hPa
Clouds: Clear
Visibility: 9 miles , 14 km
2021/01/23 14:00 CYTZ 231400Z AUTO 29009KT 9SM CLR M10/M14 A3024 RMK SLP249
 
CXTO - Toronto City, Ontario, Canada
Distance from station: NW 61mi, 98km
Updated: 01/23/2021 9:00am

 
Temperature: 14°F , -10°C
Dew Point: 5°F , -15°C
Humidity: 67%
2021/01/23 14:00 CXTO 231400Z AUTO M10/M15 RMK AO1 SLP244 T10971151 52027
KJHW - Jamestown, New York, USA
Distance from station: SSW 62mi, 99km
Updated: 01/23/2021 8:56am
Light snow, Overcast
Light snow, Overcast
 Wind from NW
Wind: NW 15 mph , 24 km/h, Gust: 22 mph , 35 km/h
Temperature: 18°F , -8°C
Wind Chill: 4°F , -16°C
Dew Point: 10°F , -12°C
Humidity: 73%
Barometer: 30.15 inHg , 1021 hPa
Summary: Light Snow
Clouds: Overcast
Visibility: 4 miles , 6 km
Cloud details: Overcast 2600 ft
2021/01/23 13:56 KJHW 231356Z AUTO 32013G19KT 4SM -SN OVC026 M08/M12 A3015 RMK AO2 SLP244 P0000 T10831117 FZRANO
 
CYHM - Hamilton Airport, Ontario, Canada
Distance from station: WNW 63mi, 101km
Updated: 01/23/2021 9:00am
Mostly cloudy
Mostly cloudy
 Wind from WNW
Wind: WNW 6 mph , 9 km/h
Temperature: 18°F , -8°C
Wind Chill: 10°F , -12°C
Dew Point: 9°F , -13°C
Humidity: 68%
Barometer: 30.22 inHg , 1023.4 hPa
Clouds: Mostly cloudy
Visibility: 15 miles , 24 km
Cloud details: Few Clouds 2400 ft
Mostly cloudy 3900 ft
2021/01/23 14:00 CYHM 231400Z 30005KT 280V340 15SM FEW024 BKN039 M08/M13 A3022 RMK CF1SC6 CF TR SLP251
CXHM - Hamilton Rbg Cs, Ontario, Canada
Distance from station: WNW 64mi, 102km
Updated: 01/23/2021 9:00am

 Wind from WNW
Wind: WNW 6 mph , 9 km/h
Temperature: 18°F , -8°C
Wind Chill: 10°F , -12°C
Dew Point: 9°F , -13°C
Humidity: 68%
2021/01/23 14:00 CXHM 231400Z AUTO 30005KT M08/M13 RMK AO1 SLP256 T10771130 51025
 
CYYZ - Toronto/Pearson, Ontario, Canada
Distance from station: NW 67mi, 108km
Updated: 01/23/2021 9:00am
Few Clouds
Few Clouds
 Wind from NW
Wind: NW 6 mph , 9 km/h
Temperature: 14°F , -10°C
Wind Chill: 5°F , -15°C
Dew Point: 7°F , -14°C
Humidity: 73%
Barometer: 30.22 inHg , 1023.4 hPa
Clouds: Few Clouds
Visibility: 15 miles , 24 km
Cloud details: Few Clouds 12000 ft
2021/01/23 14:00 CYYZ 231400Z 31005KT 15SM FEW120 M10/M14 A3022 RMK AC1 AC TR SLP245
CYOO - Oshawa, Ontario, Canada
Distance from station: N 68mi, 110km
Updated: 01/23/2021 9:00am
Clear
Clear
 Wind from NW
Wind: NW 9 mph , 15 km/h
Temperature: 10°F , -12°C
Wind Chill: -3°F , -19°C
Dew Point: 5°F , -15°C
Humidity: 79%
Barometer: 30.22 inHg , 1023.4 hPa
Clouds: Clear
Visibility: 9 miles , 14 km
2021/01/23 14:00 CYOO 231400Z AUTO 32008KT 9SM CLR M12/M15 A3022 RMK SLP244
 
KELZ - Wellsville, New York, USA
Distance from station: SE 69mi, 111km
Updated: 01/23/2021 9:01am
Light snow, Mist, Overcast
Light snow, Mist, Overcast
 
Temperature: 14°F , -10°C
Dew Point: 10°F , -12°C
Humidity: 85%
Barometer: 30.08 inHg , 1018.6 hPa
Summary: Light snow, Mist
Clouds: Overcast
Visibility: 1 3/4 miles , 2.8 km
Cloud details: Few Clouds 2100 ft
Mostly cloudy 2800 ft
Overcast 3500 ft
2021/01/23 14:01 KELZ 231401Z AUTO 1 3/4SM -SN BR FEW021 BKN028 OVC035 M10/M12 A3008 RMK AO2 P0000 T11001122 $
CWNC - Cobourg (mars), Ontario, Canada
Distance from station: NNE 76mi, 122km
Updated: 01/23/2021 9:00am

 Wind from NW
Wind: NW 7 mph , 11 km/h
Temperature: 9°F , -13°C
Wind Chill: -2°F , -19°C
Dew Point: 1°F , -17°C
Humidity: 72%
2021/01/23 14:00 CWNC 231400Z AUTO 32006KT M13/M17 RMK AO1 SOG 02 1027 SLP233 T11321173